sensor_id;sensor_type;location;lat;lon;timestamp;temperature;humidity
41876;DHT22;27555;50.808;4.402;2022-10-16T00:00:43;15.50;99.90
41876;DHT22;27555;50.808;4.402;2022-10-16T00:03:09;15.50;99.90
41876;DHT22;27555;50.808;4.402;2022-10-16T00:05:40;15.50;99.90
41876;DHT22;27555;50.808;4.402;2022-10-16T00:08:07;15.40;99.90
41876;DHT22;27555;50.808;4.402;2022-10-16T00:10:33;15.50;99.90
41876;DHT22;27555;50.808;4.402;2022-10-16T00:12:59;15.40;99.90
41876;DHT22;27555;50.808;4.402;2022-10-16T00:15:25;15.30;99.90
41876;DHT22;27555;50.808;4.402;2022-10-16T00:17:50;15.40;99.90
41876;DHT22;27555;50.808;4.402;2022-10-16T00:20:16;15.30;99.90
41876;DHT22;27555;50.808;4.402;2022-10-16T00:22:41;15.30;99.90
41876;DHT22;27555;50.808;4.402;2022-10-16T00:25:07;15.30;99.90
41876;DHT22;27555;50.808;4.402;2022-10-16T00:27:33;15.50;99.90
41876;DHT22;27555;50.808;4.402;2022-10-16T00:29:59;15.60;99.90
41876;DHT22;27555;50.808;4.402;2022-10-16T00:32:25;15.50;99.90
41876;DHT22;27555;50.808;4.402;2022-10-16T00:34:50;15.40;99.90
41876;DHT22;27555;50.808;4.402;2022-10-16T00:37:20;15.30;99.90
41876;DHT22;27555;50.808;4.402;2022-10-16T00:39:45;15.30;99.90
41876;DHT22;27555;50.808;4.402;2022-10-16T00:42:16;15.40;99.90
41876;DHT22;27555;50.808;4.402;2022-10-16T00:44:51;15.30;99.90
41876;DHT22;27555;50.808;4.402;2022-10-16T00:47:30;15.20;99.90
41876;DHT22;27555;50.808;4.402;2022-10-16T00:50:27;15.30;99.90
41876;DHT22;27555;50.808;4.402;2022-10-16T00:52:54;15.10;99.90
41876;DHT22;27555;50.808;4.402;2022-10-16T00:55:20;15.00;99.90
41876;DHT22;27555;50.808;4.402;2022-10-16T00:57:49;15.10;99.90
41876;DHT22;27555;50.808;4.402;2022-10-16T01:00:19;15.30;99.90
41876;DHT22;27555;50.808;4.402;2022-10-16T01:02:52;15.20;99.90
41876;DHT22;27555;50.808;4.402;2022-10-16T01:05:18;15.00;99.90
41876;DHT22;27555;50.808;4.402;2022-10-16T01:08:18;15.00;99.90
41876;DHT22;27555;50.808;4.402;2022-10-16T01:10:57;15.00;99.90
41876;DHT22;27555;50.808;4.402;2022-10-16T01:13:30;15.10;99.90
41876;DHT22;27555;50.808;4.402;2022-10-16T01:16:12;15.20;99.90
41876;DHT22;27555;50.808;4.402;2022-10-16T01:18:45;15.20;99.90
41876;DHT22;27555;50.808;4.402;2022-10-16T01:21:33;15.10;99.90
41876;DHT22;27555;50.808;4.402;2022-10-16T01:24:08;15.00;99.90
41876;DHT22;27555;50.808;4.402;2022-10-16T01:30:02;15.00;99.90
41876;DHT22;27555;50.808;4.402;2022-10-16T01:32:38;15.10;99.90
41876;DHT22;27555;50.808;4.402;2022-10-16T01:35:11;15.20;99.90
41876;DHT22;27555;50.808;4.402;2022-10-16T01:37:46;15.10;99.90
41876;DHT22;27555;50.808;4.402;2022-10-16T01:40:16;15.10;99.90
41876;DHT22;27555;50.808;4.402;2022-10-16T01:42:47;15.10;99.90
41876;DHT22;27555;50.808;4.402;2022-10-16T01:45:17;15.10;99.90
41876;DHT22;27555;50.808;4.402;2022-10-16T01:47:45;15.20;99.90
41876;DHT22;27555;50.808;4.402;2022-10-16T01:50:12;15.00;99.90
41876;DHT22;27555;50.808;4.402;2022-10-16T01:52:43;15.00;99.90
41876;DHT22;27555;50.808;4.402;2022-10-16T01:55:10;14.90;99.90
41876;DHT22;27555;50.808;4.402;2022-10-16T01:57:41;14.90;99.90
41876;DHT22;27555;50.808;4.402;2022-10-16T02:00:11;14.90;99.90
41876;DHT22;27555;50.808;4.402;2022-10-16T02:02:40;14.90;99.90
41876;DHT22;27555;50.808;4.402;2022-10-16T02:05:30;15.00;99.90
41876;DHT22;27555;50.808;4.402;2022-10-16T02:07:57;15.10;99.90
41876;DHT22;27555;50.808;4.402;2022-10-16T02:10:24;15.10;99.90
41876;DHT22;27555;50.808;4.402;2022-10-16T02:13:13;15.20;99.90
41876;DHT22;27555;50.808;4.402;2022-10-16T02:15:40;15.00;99.90
41876;DHT22;27555;50.808;4.402;2022-10-16T02:18:07;14.90;99.90
41876;DHT22;27555;50.808;4.402;2022-10-16T02:20:45;14.90;99.90
41876;DHT22;27555;50.808;4.402;2022-10-16T02:23:21;14.90;99.90
41876;DHT22;27555;50.808;4.402;2022-10-16T02:25:50;14.90;99.90
41876;DHT22;27555;50.808;4.402;2022-10-16T02:28:33;14.90;99.90
41876;DHT22;27555;50.808;4.402;2022-10-16T02:31:05;14.70;99.90
41876;DHT22;27555;50.808;4.402;2022-10-16T02:33:32;14.80;99.90
41876;DHT22;27555;50.808;4.402;2022-10-16T02:35:59;15.00;99.90
41876;DHT22;27555;50.808;4.402;2022-10-16T02:38:25;14.90;99.90
41876;DHT22;27555;50.808;4.402;2022-10-16T02:40:52;14.90;99.90
41876;DHT22;27555;50.808;4.402;2022-10-16T02:43:18;15.10;99.90
41876;DHT22;27555;50.808;4.402;2022-10-16T02:45:44;15.10;99.90
41876;DHT22;27555;50.808;4.402;2022-10-16T02:48:10;14.90;99.90
41876;DHT22;27555;50.808;4.402;2022-10-16T02:50:35;15.00;99.90
41876;DHT22;27555;50.808;4.402;2022-10-16T02:53:01;14.80;99.90
41876;DHT22;27555;50.808;4.402;2022-10-16T02:55:28;14.80;99.90
41876;DHT22;27555;50.808;4.402;2022-10-16T02:57:54;14.90;99.90
41876;DHT22;27555;50.808;4.402;2022-10-16T03:00:20;14.90;99.90
41876;DHT22;27555;50.808;4.402;2022-10-16T03:02:46;14.80;99.90
41876;DHT22;27555;50.808;4.402;2022-10-16T03:05:13;14.90;99.90
41876;DHT22;27555;50.808;4.402;2022-10-16T03:07:39;15.00;99.90
41876;DHT22;27555;50.808;4.402;2022-10-16T03:10:06;14.90;99.90
41876;DHT22;27555;50.808;4.402;2022-10-16T03:12:32;15.10;99.90
41876;DHT22;27555;50.808;4.402;2022-10-16T03:14:58;15.10;99.90
41876;DHT22;27555;50.808;4.402;2022-10-16T03:17:24;14.80;99.90
41876;DHT22;27555;50.808;4.402;2022-10-16T03:19:51;14.90;99.90
41876;DHT22;27555;50.808;4.402;2022-10-16T03:22:17;15.00;99.90
41876;DHT22;27555;50.808;4.402;2022-10-16T03:24:43;15.10;99.90
41876;DHT22;27555;50.808;4.402;2022-10-16T03:27:09;15.00;99.90
41876;DHT22;27555;50.808;4.402;2022-10-16T03:29:34;15.10;99.90
41876;DHT22;27555;50.808;4.402;2022-10-16T03:32:00;15.10;99.90
41876;DHT22;27555;50.808;4.402;2022-10-16T03:34:26;15.00;99.90
41876;DHT22;27555;50.808;4.402;2022-10-16T03:36:52;15.10;99.90
41876;DHT22;27555;50.808;4.402;2022-10-16T03:39:18;15.10;99.90
41876;DHT22;27555;50.808;4.402;2022-10-16T03:41:44;15.00;99.90
41876;DHT22;27555;50.808;4.402;2022-10-16T03:44:09;14.80;99.90
41876;DHT22;27555;50.808;4.402;2022-10-16T03:46:35;14.90;99.90
41876;DHT22;27555;50.808;4.402;2022-10-16T03:49:00;14.90;99.90
41876;DHT22;27555;50.808;4.402;2022-10-16T03:51:27;14.90;99.90
41876;DHT22;27555;50.808;4.402;2022-10-16T03:53:53;14.90;99.90
41876;DHT22;27555;50.808;4.402;2022-10-16T03:56:18;14.90;99.90
41876;DHT22;27555;50.808;4.402;2022-10-16T03:58:44;15.00;99.90
41876;DHT22;27555;50.808;4.402;2022-10-16T04:01:09;15.00;99.90
41876;DHT22;27555;50.808;4.402;2022-10-16T04:03:35;15.10;99.90
41876;DHT22;27555;50.808;4.402;2022-10-16T04:06:00;14.90;99.90
41876;DHT22;27555;50.808;4.402;2022-10-16T04:08:26;14.80;99.90
41876;DHT22;27555;50.808;4.402;2022-10-16T04:10:51;14.80;99.90
41876;DHT22;27555;50.808;4.402;2022-10-16T04:13:17;14.80;99.90
41876;DHT22;27555;50.808;4.402;2022-10-16T04:15:44;14.90;99.90
41876;DHT22;27555;50.808;4.402;2022-10-16T04:18:10;14.70;99.90
41876;DHT22;27555;50.808;4.402;2022-10-16T04:20:35;14.60;99.90
41876;DHT22;27555;50.808;4.402;2022-10-16T04:23:01;14.60;99.90
41876;DHT22;27555;50.808;4.402;2022-10-16T04:25:28;14.70;99.90
41876;DHT22;27555;50.808;4.402;2022-10-16T04:27:54;14.90;99.90
41876;DHT22;27555;50.808;4.402;2022-10-16T04:30:21;15.10;99.90
41876;DHT22;27555;50.808;4.402;2022-10-16T04:32:48;15.20;99.90
41876;DHT22;27555;50.808;4.402;2022-10-16T04:35:15;15.10;99.90
41876;DHT22;27555;50.808;4.402;2022-10-16T04:37:41;15.00;99.90
41876;DHT22;27555;50.808;4.402;2022-10-16T04:40:07;15.00;99.90
41876;DHT22;27555;50.808;4.402;2022-10-16T04:42:34;15.00;99.90
41876;DHT22;27555;50.808;4.402;2022-10-16T04:44:59;15.10;99.90
41876;DHT22;27555;50.808;4.402;2022-10-16T04:47:27;14.90;99.90
41876;DHT22;27555;50.808;4.402;2022-10-16T04:49:52;14.70;99.90
41876;DHT22;27555;50.808;4.402;2022-10-16T04:52:18;14.70;99.90
41876;DHT22;27555;50.808;4.402;2022-10-16T04:54:44;14.70;99.90
41876;DHT22;27555;50.808;4.402;2022-10-16T04:57:11;14.60;99.90
41876;DHT22;27555;50.808;4.402;2022-10-16T04:59:37;14.70;99.90
41876;DHT22;27555;50.808;4.402;2022-10-16T05:02:04;14.70;99.90
41876;DHT22;27555;50.808;4.402;2022-10-16T05:04:31;14.70;99.90
41876;DHT22;27555;50.808;4.402;2022-10-16T05:06:59;14.60;99.90
41876;DHT22;27555;50.808;4.402;2022-10-16T05:09:26;14.80;99.90
41876;DHT22;27555;50.808;4.402;2022-10-16T05:11:52;14.80;99.90
41876;DHT22;27555;50.808;4.402;2022-10-16T05:14:18;14.60;99.90
41876;DHT22;27555;50.808;4.402;2022-10-16T05:16:44;14.60;99.90
41876;DHT22;27555;50.808;4.402;2022-10-16T05:19:13;14.60;99.90
41876;DHT22;27555;50.808;4.402;2022-10-16T05:21:39;14.80;99.90
41876;DHT22;27555;50.808;4.402;2022-10-16T05:24:04;14.80;99.90
41876;DHT22;27555;50.808;4.402;2022-10-16T05:26:30;14.80;99.90
41876;DHT22;27555;50.808;4.402;2022-10-16T05:28:56;14.80;99.90
41876;DHT22;27555;50.808;4.402;2022-10-16T05:31:21;14.90;99.90
41876;DHT22;27555;50.808;4.402;2022-10-16T05:33:47;14.80;99.90
41876;DHT22;27555;50.808;4.402;2022-10-16T05:36:12;14.80;99.90
41876;DHT22;27555;50.808;4.402;2022-10-16T05:38:38;14.80;99.90
41876;DHT22;27555;50.808;4.402;2022-10-16T05:41:04;14.50;99.90
41876;DHT22;27555;50.808;4.402;2022-10-16T05:43:31;14.50;99.90
41876;DHT22;27555;50.808;4.402;2022-10-16T05:45:58;14.70;99.90
41876;DHT22;27555;50.808;4.402;2022-10-16T05:48:24;14.70;99.90
41876;DHT22;27555;50.808;4.402;2022-10-16T05:51:04;14.60;99.90
41876;DHT22;27555;50.808;4.402;2022-10-16T05:53:32;14.50;99.90
41876;DHT22;27555;50.808;4.402;2022-10-16T05:55:58;14.40;99.90
41876;DHT22;27555;50.808;4.402;2022-10-16T05:58:25;14.40;99.90
41876;DHT22;27555;50.808;4.402;2022-10-16T06:01:09;14.30;99.90
41876;DHT22;27555;50.808;4.402;2022-10-16T06:03:35;14.20;99.90
41876;DHT22;27555;50.808;4.402;2022-10-16T06:08:37;14.50;99.90
41876;DHT22;27555;50.808;4.402;2022-10-16T06:11:06;14.70;99.90
41876;DHT22;27555;50.808;4.402;2022-10-16T06:13:32;14.70;99.90
41876;DHT22;27555;50.808;4.402;2022-10-16T06:15:59;14.60;99.90
41876;DHT22;27555;50.808;4.402;2022-10-16T06:18:26;14.40;99.90
41876;DHT22;27555;50.808;4.402;2022-10-16T06:20:51;14.20;99.90
41876;DHT22;27555;50.808;4.402;2022-10-16T06:23:17;14.10;99.90
41876;DHT22;27555;50.808;4.402;2022-10-16T06:25:43;14.20;99.90
41876;DHT22;27555;50.808;4.402;2022-10-16T06:28:08;14.10;99.90
41876;DHT22;27555;50.808;4.402;2022-10-16T06:30:34;14.00;99.90
41876;DHT22;27555;50.808;4.402;2022-10-16T06:32:59;14.00;99.90
41876;DHT22;27555;50.808;4.402;2022-10-16T06:35:25;14.10;99.90
41876;DHT22;27555;50.808;4.402;2022-10-16T06:37:52;14.20;99.90
41876;DHT22;27555;50.808;4.402;2022-10-16T06:40:18;14.50;99.90
41876;DHT22;27555;50.808;4.402;2022-10-16T06:42:43;14.60;99.90
41876;DHT22;27555;50.808;4.402;2022-10-16T06:45:09;14.70;99.90
41876;DHT22;27555;50.808;4.402;2022-10-16T06:47:36;14.70;99.90
41876;DHT22;27555;50.808;4.402;2022-10-16T06:50:04;14.80;99.90
41876;DHT22;27555;50.808;4.402;2022-10-16T06:52:32;14.90;99.90
41876;DHT22;27555;50.808;4.402;2022-10-16T06:54:58;15.10;99.90
41876;DHT22;27555;50.808;4.402;2022-10-16T06:57:24;15.40;99.90
41876;DHT22;27555;50.808;4.402;2022-10-16T06:59:49;16.10;99.90
41876;DHT22;27555;50.808;4.402;2022-10-16T07:02:15;16.90;99.90
41876;DHT22;27555;50.808;4.402;2022-10-16T07:04:40;17.70;99.90
41876;DHT22;27555;50.808;4.402;2022-10-16T07:07:06;18.50;99.90
41876;DHT22;27555;50.808;4.402;2022-10-16T07:09:31;19.40;99.90
41876;DHT22;27555;50.808;4.402;2022-10-16T07:11:57;19.80;99.90
41876;DHT22;27555;50.808;4.402;2022-10-16T07:14:22;20.20;99.90
41876;DHT22;27555;50.808;4.402;2022-10-16T07:16:49;20.70;99.90
41876;DHT22;27555;50.808;4.402;2022-10-16T07:19:15;20.90;99.90
41876;DHT22;27555;50.808;4.402;2022-10-16T07:21:42;20.90;99.90
41876;DHT22;27555;50.808;4.402;2022-10-16T07:24:14;20.80;99.90
41876;DHT22;27555;50.808;4.402;2022-10-16T07:26:40;21.00;99.90
41876;DHT22;27555;50.808;4.402;2022-10-16T07:29:17;20.90;99.90
41876;DHT22;27555;50.808;4.402;2022-10-16T07:31:44;20.60;99.90
41876;DHT22;27555;50.808;4.402;2022-10-16T07:34:11;20.40;99.90
41876;DHT22;27555;50.808;4.402;2022-10-16T07:36:36;21.00;99.90
41876;DHT22;27555;50.808;4.402;2022-10-16T07:39:04;21.80;99.90
41876;DHT22;27555;50.808;4.402;2022-10-16T07:41:29;22.20;99.90
41876;DHT22;27555;50.808;4.402;2022-10-16T07:43:55;22.90;99.90
41876;DHT22;27555;50.808;4.402;2022-10-16T07:46:24;22.90;99.90
41876;DHT22;27555;50.808;4.402;2022-10-16T07:48:50;22.90;99.90
41876;DHT22;27555;50.808;4.402;2022-10-16T07:51:18;22.90;99.90
41876;DHT22;27555;50.808;4.402;2022-10-16T07:53:44;23.20;99.90
41876;DHT22;27555;50.808;4.402;2022-10-16T07:56:10;23.30;99.80
41876;DHT22;27555;50.808;4.402;2022-10-16T07:58:36;23.60;99.60
41876;DHT22;27555;50.808;4.402;2022-10-16T08:01:09;24.10;99.00
41876;DHT22;27555;50.808;4.402;2022-10-16T08:03:35;24.30;98.60
41876;DHT22;27555;50.808;4.402;2022-10-16T08:06:02;23.80;98.60
41876;DHT22;27555;50.808;4.402;2022-10-16T08:08:28;24.10;98.40
41876;DHT22;27555;50.808;4.402;2022-10-16T08:10:53;24.50;98.20
41876;DHT22;27555;50.808;4.402;2022-10-16T08:13:19;24.10;98.30
41876;DHT22;27555;50.808;4.402;2022-10-16T08:15:45;24.00;98.20
41876;DHT22;27555;50.808;4.402;2022-10-16T08:18:12;24.50;97.80
41876;DHT22;27555;50.808;4.402;2022-10-16T08:20:39;24.90;97.10
41876;DHT22;27555;50.808;4.402;2022-10-16T08:23:05;24.90;97.00
41876;DHT22;27555;50.808;4.402;2022-10-16T08:25:34;25.30;96.80
41876;DHT22;27555;50.808;4.402;2022-10-16T08:28:00;25.00;96.60
41876;DHT22;27555;50.808;4.402;2022-10-16T08:30:28;25.10;96.60
41876;DHT22;27555;50.808;4.402;2022-10-16T08:32:53;25.50;96.40
41876;DHT22;27555;50.808;4.402;2022-10-16T08:35:19;25.90;95.70
41876;DHT22;27555;50.808;4.402;2022-10-16T08:37:45;26.30;95.70
41876;DHT22;27555;50.808;4.402;2022-10-16T08:40:24;26.70;95.00
41876;DHT22;27555;50.808;4.402;2022-10-16T08:48:34;26.30;94.50
41876;DHT22;27555;50.808;4.402;2022-10-16T08:51:02;26.00;94.60
41876;DHT22;27555;50.808;4.402;2022-10-16T08:53:41;25.90;94.90
41876;DHT22;27555;50.808;4.402;2022-10-16T08:56:08;25.90;94.90
41876;DHT22;27555;50.808;4.402;2022-10-16T08:58:34;26.10;94.80
41876;DHT22;27555;50.808;4.402;2022-10-16T09:01:02;26.20;94.30
41876;DHT22;27555;50.808;4.402;2022-10-16T09:09:18;27.00;93.40
41876;DHT22;27555;50.808;4.402;2022-10-16T09:12:09;27.20;93.40
41876;DHT22;27555;50.808;4.402;2022-10-16T09:19:55;27.80;92.60
41876;DHT22;27555;50.808;4.402;2022-10-16T09:22:26;27.90;92.40
41876;DHT22;27555;50.808;4.402;2022-10-16T09:24:55;28.10;92.00
41876;DHT22;27555;50.808;4.402;2022-10-16T09:27:24;28.20;92.00
41876;DHT22;27555;50.808;4.402;2022-10-16T09:29:51;28.20;92.00
41876;DHT22;27555;50.808;4.402;2022-10-16T09:32:19;28.90;91.60
41876;DHT22;27555;50.808;4.402;2022-10-16T09:34:49;28.80;91.00
41876;DHT22;27555;50.808;4.402;2022-10-16T09:37:18;28.70;91.10
41876;DHT22;27555;50.808;4.402;2022-10-16T09:39:50;28.70;90.90
41876;DHT22;27555;50.808;4.402;2022-10-16T09:42:31;29.00;90.90
41876;DHT22;27555;50.808;4.402;2022-10-16T09:44:57;29.30;90.70
41876;DHT22;27555;50.808;4.402;2022-10-16T09:47:25;29.70;90.30
41876;DHT22;27555;50.808;4.402;2022-10-16T09:52:28;29.00;90.40
41876;DHT22;27555;50.808;4.402;2022-10-16T09:54:55;28.90;90.30
41876;DHT22;27555;50.808;4.402;2022-10-16T09:57:22;29.40;89.70
41876;DHT22;27555;50.808;4.402;2022-10-16T10:00:09;29.40;89.70
41876;DHT22;27555;50.808;4.402;2022-10-16T10:02:36;29.80;89.20
41876;DHT22;27555;50.808;4.402;2022-10-16T10:05:05;29.30;89.70
41876;DHT22;27555;50.808;4.402;2022-10-16T10:07:33;29.00;89.70
41876;DHT22;27555;50.808;4.402;2022-10-16T10:10:03;28.40;89.70
41876;DHT22;27555;50.808;4.402;2022-10-16T10:12:30;27.30;90.70
41876;DHT22;27555;50.808;4.402;2022-10-16T10:15:15;27.40;90.50
41876;DHT22;27555;50.808;4.402;2022-10-16T10:17:49;27.60;90.80
41876;DHT22;27555;50.808;4.402;2022-10-16T10:20:25;28.40;89.70
41876;DHT22;27555;50.808;4.402;2022-10-16T10:22:53;29.20;89.90
41876;DHT22;27555;50.808;4.402;2022-10-16T10:34:03;29.50;87.40
41876;DHT22;27555;50.808;4.402;2022-10-16T10:36:39;29.70;87.70
41876;DHT22;27555;50.808;4.402;2022-10-16T10:39:16;30.40;87.10
41876;DHT22;27555;50.808;4.402;2022-10-16T10:42:22;30.00;87.10
41876;DHT22;27555;50.808;4.402;2022-10-16T10:45:16;29.60;87.00
41876;DHT22;27555;50.808;4.402;2022-10-16T10:50:36;29.50;87.20
41876;DHT22;27555;50.808;4.402;2022-10-16T10:53:31;29.50;87.40
41876;DHT22;27555;50.808;4.402;2022-10-16T10:59:23;29.50;87.00
41876;DHT22;27555;50.808;4.402;2022-10-16T11:01:59;28.60;87.60
41876;DHT22;27555;50.808;4.402;2022-10-16T11:04:34;29.10;87.40
41876;DHT22;27555;50.808;4.402;2022-10-16T11:07:13;29.30;86.80
41876;DHT22;27555;50.808;4.402;2022-10-16T11:09:45;28.40;87.90
41876;DHT22;27555;50.808;4.402;2022-10-16T11:12:19;28.60;88.00
41876;DHT22;27555;50.808;4.402;2022-10-16T11:17:27;29.40;86.50
41876;DHT22;27555;50.808;4.402;2022-10-16T11:20:05;29.80;86.40
41876;DHT22;27555;50.808;4.402;2022-10-16T11:23:14;30.10;85.50
41876;DHT22;27555;50.808;4.402;2022-10-16T11:25:31;30.10;85.40
41876;DHT22;27555;50.808;4.402;2022-10-16T11:30:28;29.40;86.20
41876;DHT22;27555;50.808;4.402;2022-10-16T11:38:51;30.00;85.90
41876;DHT22;27555;50.808;4.402;2022-10-16T11:44:34;29.20;83.90
41876;DHT22;27555;50.808;4.402;2022-10-16T11:49:46;26.70;88.10
41876;DHT22;27555;50.808;4.402;2022-10-16T11:52:24;25.70;90.30
41876;DHT22;27555;50.808;4.402;2022-10-16T11:55:05;24.80;91.30
41876;DHT22;27555;50.808;4.402;2022-10-16T11:57:39;23.90;92.10
41876;DHT22;27555;50.808;4.402;2022-10-16T12:00:36;23.80;91.80
41876;DHT22;27555;50.808;4.402;2022-10-16T12:06:13;23.50;91.90
41876;DHT22;27555;50.808;4.402;2022-10-16T12:08:40;23.60;91.80
41876;DHT22;27555;50.808;4.402;2022-10-16T12:11:52;23.50;91.90
41876;DHT22;27555;50.808;4.402;2022-10-16T12:17:27;23.30;92.70
41876;DHT22;27555;50.808;4.402;2022-10-16T12:23:19;23.20;92.20
41876;DHT22;27555;50.808;4.402;2022-10-16T12:26:01;23.10;92.70
41876;DHT22;27555;50.808;4.402;2022-10-16T12:28:37;23.10;92.90
41876;DHT22;27555;50.808;4.402;2022-10-16T12:31:07;23.60;92.70
41876;DHT22;27555;50.808;4.402;2022-10-16T12:33:37;23.80;92.60
41876;DHT22;27555;50.808;4.402;2022-10-16T12:36:15;23.80;92.80
41876;DHT22;27555;50.808;4.402;2022-10-16T12:38:49;23.50;93.10
41876;DHT22;27555;50.808;4.402;2022-10-16T12:41:33;23.30;93.10
41876;DHT22;27555;50.808;4.402;2022-10-16T12:44:01;23.10;93.50
41876;DHT22;27555;50.808;4.402;2022-10-16T12:49:36;22.60;94.10
41876;DHT22;27555;50.808;4.402;2022-10-16T12:52:03;22.60;94.20
41876;DHT22;27555;50.808;4.402;2022-10-16T12:54:37;22.80;94.10
41876;DHT22;27555;50.808;4.402;2022-10-16T12:57:18;22.70;94.20
41876;DHT22;27555;50.808;4.402;2022-10-16T13:16:41;22.20;95.30
41876;DHT22;27555;50.808;4.402;2022-10-16T13:22:28;22.10;95.50
41876;DHT22;27555;50.808;4.402;2022-10-16T13:25:18;22.20;95.50
41876;DHT22;27555;50.808;4.402;2022-10-16T13:27:49;22.00;95.80
41876;DHT22;27555;50.808;4.402;2022-10-16T13:30:25;21.90;95.90
41876;DHT22;27555;50.808;4.402;2022-10-16T13:33:40;21.90;95.70
41876;DHT22;27555;50.808;4.402;2022-10-16T13:35:52;22.00;95.50
41876;DHT22;27555;50.808;4.402;2022-10-16T13:38:21;22.00;95.30
41876;DHT22;27555;50.808;4.402;2022-10-16T13:40:59;22.20;95.00
41876;DHT22;27555;50.808;4.402;2022-10-16T13:43:35;22.20;95.00
41876;DHT22;27555;50.808;4.402;2022-10-16T13:46:04;21.90;95.10
41876;DHT22;27555;50.808;4.402;2022-10-16T13:48:32;21.70;95.30
41876;DHT22;27555;50.808;4.402;2022-10-16T13:53:30;21.80;95.10
41876;DHT22;27555;50.808;4.402;2022-10-16T13:55:56;21.90;95.30
41876;DHT22;27555;50.808;4.402;2022-10-16T13:58:22;21.70;95.20
41876;DHT22;27555;50.808;4.402;2022-10-16T14:00:59;21.70;95.70
41876;DHT22;27555;50.808;4.402;2022-10-16T14:03:26;21.50;96.10
41876;DHT22;27555;50.808;4.402;2022-10-16T14:05:54;21.80;95.50
41876;DHT22;27555;50.808;4.402;2022-10-16T14:08:22;22.00;95.40
41876;DHT22;27555;50.808;4.402;2022-10-16T14:10:53;21.90;95.50
41876;DHT22;27555;50.808;4.402;2022-10-16T14:13:31;21.70;95.90
41876;DHT22;27555;50.808;4.402;2022-10-16T14:16:20;21.50;95.80
41876;DHT22;27555;50.808;4.402;2022-10-16T14:18:53;21.70;95.80
41876;DHT22;27555;50.808;4.402;2022-10-16T14:21:20;21.50;96.20
41876;DHT22;27555;50.808;4.402;2022-10-16T14:23:47;21.50;96.30
41876;DHT22;27555;50.808;4.402;2022-10-16T14:26:15;21.70;96.00
41876;DHT22;27555;50.808;4.402;2022-10-16T14:28:46;21.70;96.30
41876;DHT22;27555;50.808;4.402;2022-10-16T14:31:30;21.90;96.00
41876;DHT22;27555;50.808;4.402;2022-10-16T14:33:57;22.00;95.80
41876;DHT22;27555;50.808;4.402;2022-10-16T14:36:23;21.90;96.00
41876;DHT22;27555;50.808;4.402;2022-10-16T14:39:03;21.90;96.30
41876;DHT22;27555;50.808;4.402;2022-10-16T14:41:33;21.80;96.30
41876;DHT22;27555;50.808;4.402;2022-10-16T14:44:06;21.70;96.50
41876;DHT22;27555;50.808;4.402;2022-10-16T14:46:42;21.40;96.70
41876;DHT22;27555;50.808;4.402;2022-10-16T14:51:37;21.40;97.00
41876;DHT22;27555;50.808;4.402;2022-10-16T14:54:04;21.40;96.90
41876;DHT22;27555;50.808;4.402;2022-10-16T14:56:54;21.50;97.10
41876;DHT22;27555;50.808;4.402;2022-10-16T14:59:37;21.40;97.20
41876;DHT22;27555;50.808;4.402;2022-10-16T15:02:31;21.40;97.10
41876;DHT22;27555;50.808;4.402;2022-10-16T15:04:57;21.50;96.80
41876;DHT22;27555;50.808;4.402;2022-10-16T15:07:23;21.40;97.20
41876;DHT22;27555;50.808;4.402;2022-10-16T15:09:49;21.30;97.20
41876;DHT22;27555;50.808;4.402;2022-10-16T15:12:16;21.30;97.40
41876;DHT22;27555;50.808;4.402;2022-10-16T15:14:42;21.40;97.30
41876;DHT22;27555;50.808;4.402;2022-10-16T15:17:11;21.40;97.20
41876;DHT22;27555;50.808;4.402;2022-10-16T15:19:36;21.40;97.20
41876;DHT22;27555;50.808;4.402;2022-10-16T15:22:02;21.40;97.40
41876;DHT22;27555;50.808;4.402;2022-10-16T15:24:28;21.30;97.60
41876;DHT22;27555;50.808;4.402;2022-10-16T15:26:53;21.30;97.70
41876;DHT22;27555;50.808;4.402;2022-10-16T15:29:19;21.20;97.80
41876;DHT22;27555;50.808;4.402;2022-10-16T15:31:45;21.20;98.00
41876;DHT22;27555;50.808;4.402;2022-10-16T15:34:12;21.10;98.00
41876;DHT22;27555;50.808;4.402;2022-10-16T15:36:39;21.00;98.00
41876;DHT22;27555;50.808;4.402;2022-10-16T15:39:16;21.10;98.10
41876;DHT22;27555;50.808;4.402;2022-10-16T15:41:44;21.10;97.70
41876;DHT22;27555;50.808;4.402;2022-10-16T15:44:10;21.10;97.90
41876;DHT22;27555;50.808;4.402;2022-10-16T15:46:35;21.00;98.20
41876;DHT22;27555;50.808;4.402;2022-10-16T15:49:03;21.00;98.20
41876;DHT22;27555;50.808;4.402;2022-10-16T15:51:28;20.90;98.40
41876;DHT22;27555;50.808;4.402;2022-10-16T15:53:56;20.90;98.50
41876;DHT22;27555;50.808;4.402;2022-10-16T15:56:22;20.80;98.60
41876;DHT22;27555;50.808;4.402;2022-10-16T15:58:51;20.70;98.80
41876;DHT22;27555;50.808;4.402;2022-10-16T16:01:16;20.70;98.90
41876;DHT22;27555;50.808;4.402;2022-10-16T16:03:42;20.60;99.10
41876;DHT22;27555;50.808;4.402;2022-10-16T16:06:10;20.60;99.90
41876;DHT22;27555;50.808;4.402;2022-10-16T16:08:37;20.60;99.40
41876;DHT22;27555;50.808;4.402;2022-10-16T16:11:07;20.60;99.50
41876;DHT22;27555;50.808;4.402;2022-10-16T16:13:33;20.50;99.80
41876;DHT22;27555;50.808;4.402;2022-10-16T16:15:59;20.40;99.90
41876;DHT22;27555;50.808;4.402;2022-10-16T16:18:24;20.40;99.90
41876;DHT22;27555;50.808;4.402;2022-10-16T16:20:51;20.40;99.90
41876;DHT22;27555;50.808;4.402;2022-10-16T16:23:17;20.30;99.90
41876;DHT22;27555;50.808;4.402;2022-10-16T16:25:44;20.20;99.90
41876;DHT22;27555;50.808;4.402;2022-10-16T16:28:09;20.20;99.90
41876;DHT22;27555;50.808;4.402;2022-10-16T16:30:39;20.10;99.90
41876;DHT22;27555;50.808;4.402;2022-10-16T16:33:05;20.10;99.90
41876;DHT22;27555;50.808;4.402;2022-10-16T16:35:30;20.10;99.90
41876;DHT22;27555;50.808;4.402;2022-10-16T16:37:56;20.10;99.90
41876;DHT22;27555;50.808;4.402;2022-10-16T16:40:21;20.10;99.90
41876;DHT22;27555;50.808;4.402;2022-10-16T16:42:48;20.00;99.90
41876;DHT22;27555;50.808;4.402;2022-10-16T16:45:14;19.90;99.90
41876;DHT22;27555;50.808;4.402;2022-10-16T16:47:39;19.90;99.90
41876;DHT22;27555;50.808;4.402;2022-10-16T16:50:05;19.80;99.90
41876;DHT22;27555;50.808;4.402;2022-10-16T16:52:33;19.40;99.90
41876;DHT22;27555;50.808;4.402;2022-10-16T16:54:58;19.30;99.90
41876;DHT22;27555;50.808;4.402;2022-10-16T16:57:24;19.40;99.90
41876;DHT22;27555;50.808;4.402;2022-10-16T16:59:50;19.60;99.90
41876;DHT22;27555;50.808;4.402;2022-10-16T17:02:17;20.00;99.90
41876;DHT22;27555;50.808;4.402;2022-10-16T17:04:42;20.00;99.90
41876;DHT22;27555;50.808;4.402;2022-10-16T17:07:08;19.70;99.90
41876;DHT22;27555;50.808;4.402;2022-10-16T17:09:34;19.30;99.90
41876;DHT22;27555;50.808;4.402;2022-10-16T17:11:59;19.10;99.90
41876;DHT22;27555;50.808;4.402;2022-10-16T17:14:25;19.20;99.90
41876;DHT22;27555;50.808;4.402;2022-10-16T17:16:51;19.20;99.90
41876;DHT22;27555;50.808;4.402;2022-10-16T17:19:18;19.10;99.90